Terminal Aerodrome Forecast
Issued by NWS

Home | Current Version | Previous Version | Text Only | Print | Product List | Glossary On
Versions: 1 2 3 4 5 6 7 8 9 10 11 12 13
000
FTUS44 KLZK 302300
TAFPBF
TAF
KPBF 302331Z 3100/3124 30005KT P6SM -RA SCT025 OVC080
      TEMPO 3102/3106 5SM -RA BR OVC035
     FM310600 26003KT 6SM -RA BR SCT025 OVC040
      TEMPO 3106/3109 2SM RA BR OVC015
     FM310900 VRB05KT 5SM -RA BR SCT025 OVC040
      TEMPO 3109/3111 2SM RA BR OVC015
     FM311100 13005KT 4SM -RA BR OVC015
     FM311400 13007KT P6SM -RA SCT025 BKN035 OVC050 PROB30 3115/3118
      5SM -RA BR OVC025=

USA.gov is the U.S. government's official web portal to all federal, state and local government web resources and services.